sensor_id;sensor_type;location;lat;lon;timestamp;pressure;altitude;pressure_sealevel;temperature;humidity
60852;BME280;48553;50.766;2.900;2023-09-19T00:00:25;100289.66;;;17.36;66.66
60852;BME280;48553;50.766;2.900;2023-09-19T00:03:27;100284.50;;;17.35;66.75
60852;BME280;48553;50.766;2.900;2023-09-19T00:06:29;100289.63;;;17.32;66.88
60852;BME280;48553;50.766;2.900;2023-09-19T00:09:31;100285.69;;;17.30;66.95
60852;BME280;48553;50.766;2.900;2023-09-19T00:12:37;100292.41;;;17.32;66.66
60852;BME280;48553;50.766;2.900;2023-09-19T00:15:41;100286.88;;;17.29;66.59
60852;BME280;48553;50.766;2.900;2023-09-19T00:18:42;100286.09;;;17.28;66.63
60852;BME280;48553;50.766;2.900;2023-09-19T00:21:42;100296.34;;;17.28;66.37
60852;BME280;48553;50.766;2.900;2023-09-19T00:24:43;100300.31;;;17.27;66.66
60852;BME280;48553;50.766;2.900;2023-09-19T00:27:44;100295.56;;;17.27;66.93
60852;BME280;48553;50.766;2.900;2023-09-19T00:30:45;100295.94;;;17.26;66.79
60852;BME280;48553;50.766;2.900;2023-09-19T00:33:50;100305.84;;;17.23;66.77
60852;BME280;48553;50.766;2.900;2023-09-19T00:36:51;100314.16;;;17.23;66.82
60852;BME280;48553;50.766;2.900;2023-09-19T00:39:53;100314.56;;;17.22;66.85
60852;BME280;48553;50.766;2.900;2023-09-19T00:42:57;100308.63;;;17.20;66.81
60852;BME280;48553;50.766;2.900;2023-09-19T00:46:00;100306.22;;;17.18;67.07
60852;BME280;48553;50.766;2.900;2023-09-19T00:49:03;100303.06;;;17.16;66.85
60852;BME280;48553;50.766;2.900;2023-09-19T00:52:04;100309.00;;;17.15;67.07
60852;BME280;48553;50.766;2.900;2023-09-19T00:55:06;100312.16;;;17.17;67.15
60852;BME280;48553;50.766;2.900;2023-09-19T00:58:07;100317.31;;;17.15;67.12
60852;BME280;48553;50.766;2.900;2023-09-19T01:01:08;100329.56;;;17.14;67.29
60852;BME280;48553;50.766;2.900;2023-09-19T01:04:08;100328.78;;;17.13;67.23
60852;BME280;48553;50.766;2.900;2023-09-19T01:07:09;100328.41;;;17.15;67.21
60852;BME280;48553;50.766;2.900;2023-09-19T01:10:11;100328.00;;;17.13;67.17
60852;BME280;48553;50.766;2.900;2023-09-19T01:13:22;100312.13;;;17.09;67.12
60852;BME280;48553;50.766;2.900;2023-09-19T01:16:38;100320.03;;;17.07;67.46
60852;BME280;48553;50.766;2.900;2023-09-19T01:33:09;100338.22;;;17.01;68.18
60852;BME280;48553;50.766;2.900;2023-09-19T01:36:11;100354.44;;;16.99;68.43
60852;BME280;48553;50.766;2.900;2023-09-19T01:39:12;100357.63;;;17.01;68.46
60852;BME280;48553;50.766;2.900;2023-09-19T01:45:56;100338.22;;;16.98;68.86
60852;BME280;48553;50.766;2.900;2023-09-19T01:52:08;100329.53;;;16.99;68.91
60852;BME280;48553;50.766;2.900;2023-09-19T01:55:11;100327.91;;;16.98;69.10
60852;BME280;48553;50.766;2.900;2023-09-19T02:01:31;100334.66;;;16.97;69.46
60852;BME280;48553;50.766;2.900;2023-09-19T02:04:33;100335.03;;;16.96;69.54
60852;BME280;48553;50.766;2.900;2023-09-19T02:07:35;100333.06;;;16.96;69.52
60852;BME280;48553;50.766;2.900;2023-09-19T02:10:38;100328.72;;;16.95;69.49
60852;BME280;48553;50.766;2.900;2023-09-19T02:13:38;100330.28;;;16.96;69.68
60852;BME280;48553;50.766;2.900;2023-09-19T02:16:39;100326.72;;;16.96;69.78
60852;BME280;48553;50.766;2.900;2023-09-19T02:19:40;100324.75;;;16.93;69.88
60852;BME280;48553;50.766;2.900;2023-09-19T02:22:41;100333.84;;;16.93;69.93
60852;BME280;48553;50.766;2.900;2023-09-19T02:25:42;100331.06;;;16.93;69.87
60852;BME280;48553;50.766;2.900;2023-09-19T02:28:44;100338.22;;;16.94;69.97
60852;BME280;48553;50.766;2.900;2023-09-19T02:31:46;100335.44;;;16.94;70.04
60852;BME280;48553;50.766;2.900;2023-09-19T02:34:46;100354.41;;;16.92;70.15
60852;BME280;48553;50.766;2.900;2023-09-19T02:37:47;100342.16;;;16.93;70.09
60852;BME280;48553;50.766;2.900;2023-09-19T02:40:47;100349.66;;;16.93;70.07
60852;BME280;48553;50.766;2.900;2023-09-19T02:43:48;100341.34;;;16.93;69.98
60852;BME280;48553;50.766;2.900;2023-09-19T02:46:48;100344.88;;;16.89;69.91
60852;BME280;48553;50.766;2.900;2023-09-19T02:49:48;100338.16;;;16.87;69.94
60852;BME280;48553;50.766;2.900;2023-09-19T02:52:49;100347.28;;;16.87;69.90
60852;BME280;48553;50.766;2.900;2023-09-19T02:55:49;100344.88;;;16.86;69.81
60852;BME280;48553;50.766;2.900;2023-09-19T02:58:52;100343.28;;;16.85;69.68
60852;BME280;48553;50.766;2.900;2023-09-19T03:01:53;100349.22;;;16.83;70.09
60852;BME280;48553;50.766;2.900;2023-09-19T03:04:54;100333.00;;;16.82;69.67
60852;BME280;48553;50.766;2.900;2023-09-19T03:07:57;100335.34;;;16.80;69.78
60852;BME280;48553;50.766;2.900;2023-09-19T03:11:00;100345.22;;;16.77;69.71
60852;BME280;48553;50.766;2.900;2023-09-19T03:14:01;100343.22;;;16.74;69.82
60852;BME280;48553;50.766;2.900;2023-09-19T03:17:01;100341.25;;;16.75;69.74
60852;BME280;48553;50.766;2.900;2023-09-19T03:20:05;100328.97;;;16.72;69.69
60852;BME280;48553;50.766;2.900;2023-09-19T03:23:08;100340.44;;;16.70;69.90
60852;BME280;48553;50.766;2.900;2023-09-19T03:26:09;100337.25;;;16.68;69.74
60852;BME280;48553;50.766;2.900;2023-09-19T03:29:09;100338.44;;;16.67;70.00
60852;BME280;48553;50.766;2.900;2023-09-19T03:32:11;100339.59;;;16.63;70.06
60852;BME280;48553;50.766;2.900;2023-09-19T03:35:11;100350.28;;;16.61;69.91
60852;BME280;48553;50.766;2.900;2023-09-19T03:38:14;100354.19;;;16.60;70.16
60852;BME280;48553;50.766;2.900;2023-09-19T03:41:14;100350.22;;;16.57;70.37
60852;BME280;48553;50.766;2.900;2023-09-19T03:44:17;100356.97;;;16.56;70.39
60852;BME280;48553;50.766;2.900;2023-09-19T03:47:18;100347.47;;;16.54;70.44
60852;BME280;48553;50.766;2.900;2023-09-19T03:50:21;100347.84;;;16.52;70.55
60852;BME280;48553;50.766;2.900;2023-09-19T03:53:21;100342.31;;;16.52;70.59
60852;BME280;48553;50.766;2.900;2023-09-19T03:56:22;100348.22;;;16.50;70.65
60852;BME280;48553;50.766;2.900;2023-09-19T03:59:22;100334.78;;;16.49;70.80
60852;BME280;48553;50.766;2.900;2023-09-19T04:02:23;100332.03;;;16.49;70.92
60852;BME280;48553;50.766;2.900;2023-09-19T04:05:24;100335.53;;;16.46;71.17
60852;BME280;48553;50.766;2.900;2023-09-19T04:08:25;100342.69;;;16.47;70.94
60852;BME280;48553;50.766;2.900;2023-09-19T04:11:25;100346.59;;;16.46;71.04
60852;BME280;48553;50.766;2.900;2023-09-19T04:14:26;100335.94;;;16.44;71.12
60852;BME280;48553;50.766;2.900;2023-09-19T04:17:26;100348.19;;;16.43;71.00
60852;BME280;48553;50.766;2.900;2023-09-19T04:20:26;100343.44;;;16.40;71.27
60852;BME280;48553;50.766;2.900;2023-09-19T04:23:27;100338.28;;;16.39;71.27
60852;BME280;48553;50.766;2.900;2023-09-19T04:26:28;100346.56;;;16.39;71.40
60852;BME280;48553;50.766;2.900;2023-09-19T04:29:28;100351.31;;;16.38;71.45
60852;BME280;48553;50.766;2.900;2023-09-19T04:32:29;100348.13;;;16.36;71.43
60852;BME280;48553;50.766;2.900;2023-09-19T04:35:32;100347.34;;;16.36;71.62
60852;BME280;48553;50.766;2.900;2023-09-19T04:38:33;100356.81;;;16.35;71.48
60852;BME280;48553;50.766;2.900;2023-09-19T04:41:33;100368.69;;;16.35;71.68
60852;BME280;48553;50.766;2.900;2023-09-19T04:44:34;100374.19;;;16.32;71.71
60852;BME280;48553;50.766;2.900;2023-09-19T04:47:34;100369.44;;;16.32;71.81
60852;BME280;48553;50.766;2.900;2023-09-19T04:50:35;100372.59;;;16.31;71.78
60852;BME280;48553;50.766;2.900;2023-09-19T04:53:35;100371.38;;;16.28;72.07
60852;BME280;48553;50.766;2.900;2023-09-19T04:56:35;100371.00;;;16.26;71.89
60852;BME280;48553;50.766;2.900;2023-09-19T04:59:36;100369.38;;;16.25;72.05
60852;BME280;48553;50.766;2.900;2023-09-19T05:02:36;100367.81;;;16.24;71.95
60852;BME280;48553;50.766;2.900;2023-09-19T05:05:38;100370.16;;;16.22;72.25
60852;BME280;48553;50.766;2.900;2023-09-19T05:08:39;100366.59;;;16.21;72.40
60852;BME280;48553;50.766;2.900;2023-09-19T05:11:39;100366.59;;;16.21;72.29
60852;BME280;48553;50.766;2.900;2023-09-19T05:14:40;100371.31;;;16.21;72.39
60852;BME280;48553;50.766;2.900;2023-09-19T05:17:40;100362.25;;;16.20;72.69
60852;BME280;48553;50.766;2.900;2023-09-19T05:20:41;100370.13;;;16.18;72.78
60852;BME280;48553;50.766;2.900;2023-09-19T05:23:42;100367.38;;;16.18;72.71
60852;BME280;48553;50.766;2.900;2023-09-19T05:26:43;100360.25;;;16.17;72.69
60852;BME280;48553;50.766;2.900;2023-09-19T05:29:46;100373.69;;;16.19;72.78
60852;BME280;48553;50.766;2.900;2023-09-19T05:32:47;100363.81;;;16.18;72.81
60852;BME280;48553;50.766;2.900;2023-09-19T05:35:50;100360.25;;;16.17;72.76
60852;BME280;48553;50.766;2.900;2023-09-19T05:38:51;100367.75;;;16.17;73.07
60852;BME280;48553;50.766;2.900;2023-09-19T05:41:53;100360.22;;;16.14;73.11
60852;BME280;48553;50.766;2.900;2023-09-19T05:44:55;100364.53;;;16.11;73.32
60852;BME280;48553;50.766;2.900;2023-09-19T05:47:55;100354.69;;;16.10;73.47
60852;BME280;48553;50.766;2.900;2023-09-19T05:51:01;100362.97;;;16.10;73.46
60852;BME280;48553;50.766;2.900;2023-09-19T05:54:01;100366.13;;;16.08;73.59
60852;BME280;48553;50.766;2.900;2023-09-19T05:57:02;100360.22;;;16.10;73.51
60852;BME280;48553;50.766;2.900;2023-09-19T06:00:02;100364.13;;;16.09;73.79
60852;BME280;48553;50.766;2.900;2023-09-19T06:03:09;100358.59;;;16.09;73.79
60852;BME280;48553;50.766;2.900;2023-09-19T06:06:09;100371.63;;;16.08;74.04
60852;BME280;48553;50.766;2.900;2023-09-19T06:09:10;100371.63;;;16.08;73.94
60852;BME280;48553;50.766;2.900;2023-09-19T06:12:11;100367.28;;;16.07;74.12
60852;BME280;48553;50.766;2.900;2023-09-19T06:15:14;100362.97;;;16.10;74.28
60852;BME280;48553;50.766;2.900;2023-09-19T06:18:16;100367.69;;;16.06;74.17
60852;BME280;48553;50.766;2.900;2023-09-19T06:21:19;100369.66;;;16.09;74.22
60852;BME280;48553;50.766;2.900;2023-09-19T06:24:20;100371.22;;;16.06;74.43
60852;BME280;48553;50.766;2.900;2023-09-19T06:27:21;100377.16;;;16.08;74.23
60852;BME280;48553;50.766;2.900;2023-09-19T06:30:23;100379.16;;;16.08;74.57
60852;BME280;48553;50.766;2.900;2023-09-19T06:33:24;100378.34;;;16.07;74.71
60852;BME280;48553;50.766;2.900;2023-09-19T06:36:25;100383.50;;;16.09;74.64
60852;BME280;48553;50.766;2.900;2023-09-19T06:39:25;100365.34;;;16.12;74.70
60852;BME280;48553;50.766;2.900;2023-09-19T06:42:26;100387.03;;;16.10;74.80
60852;BME280;48553;50.766;2.900;2023-09-19T06:45:28;100387.47;;;16.12;74.86
60852;BME280;48553;50.766;2.900;2023-09-19T06:48:29;100379.56;;;16.14;74.82
60852;BME280;48553;50.766;2.900;2023-09-19T06:51:29;100377.59;;;16.14;74.87
60852;BME280;48553;50.766;2.900;2023-09-19T06:54:30;100385.88;;;16.14;74.75
60852;BME280;48553;50.766;2.900;2023-09-19T06:57:31;100389.84;;;16.17;74.95
60852;BME280;48553;50.766;2.900;2023-09-19T07:00:31;100377.63;;;16.18;74.89
60852;BME280;48553;50.766;2.900;2023-09-19T07:03:34;100395.00;;;16.18;74.94
60852;BME280;48553;50.766;2.900;2023-09-19T07:06:34;100396.63;;;16.19;74.99
60852;BME280;48553;50.766;2.900;2023-09-19T07:09:35;100391.47;;;16.21;75.23
60852;BME280;48553;50.766;2.900;2023-09-19T07:12:37;100372.53;;;16.23;75.02
60852;BME280;48553;50.766;2.900;2023-09-19T07:15:38;100380.41;;;16.21;75.12
60852;BME280;48553;50.766;2.900;2023-09-19T07:18:39;100379.25;;;16.22;75.20
60852;BME280;48553;50.766;2.900;2023-09-19T07:21:40;100378.47;;;16.25;75.14
60852;BME280;48553;50.766;2.900;2023-09-19T07:24:40;100374.97;;;16.28;75.11
60852;BME280;48553;50.766;2.900;2023-09-19T07:27:41;100380.50;;;16.28;75.04
60852;BME280;48553;50.766;2.900;2023-09-19T07:30:41;100377.72;;;16.28;75.27
60852;BME280;48553;50.766;2.900;2023-09-19T07:33:42;100373.78;;;16.29;75.34
60852;BME280;48553;50.766;2.900;2023-09-19T07:36:43;100367.47;;;16.33;75.21
60852;BME280;48553;50.766;2.900;2023-09-19T07:39:44;100374.59;;;16.37;75.17
60852;BME280;48553;50.766;2.900;2023-09-19T07:42:45;100369.06;;;16.37;75.19
60852;BME280;48553;50.766;2.900;2023-09-19T07:45:47;100372.66;;;16.38;75.34
60852;BME280;48553;50.766;2.900;2023-09-19T07:48:48;100371.50;;;16.42;75.26
60852;BME280;48553;50.766;2.900;2023-09-19T07:51:49;100358.09;;;16.44;75.13
60852;BME280;48553;50.766;2.900;2023-09-19T07:54:49;100350.56;;;16.48;75.11
60852;BME280;48553;50.766;2.900;2023-09-19T07:57:49;100349.41;;;16.49;75.26
60852;BME280;48553;50.766;2.900;2023-09-19T08:00:50;100346.66;;;16.49;75.13
60852;BME280;48553;50.766;2.900;2023-09-19T08:03:51;100341.13;;;16.53;75.17
60852;BME280;48553;50.766;2.900;2023-09-19T08:06:51;100349.06;;;16.58;75.11
60852;BME280;48553;50.766;2.900;2023-09-19T08:09:52;100336.06;;;16.62;75.07
60852;BME280;48553;50.766;2.900;2023-09-19T08:12:52;100346.75;;;16.67;74.79
60852;BME280;48553;50.766;2.900;2023-09-19T08:15:58;100347.94;;;16.74;74.70
60852;BME280;48553;50.766;2.900;2023-09-19T08:18:58;100337.69;;;16.78;74.77
60852;BME280;48553;50.766;2.900;2023-09-19T08:21:59;100342.09;;;16.82;74.56
60852;BME280;48553;50.766;2.900;2023-09-19T08:24:59;100358.72;;;16.86;74.63
60852;BME280;48553;50.766;2.900;2023-09-19T08:28:00;100339.34;;;16.89;74.71
60852;BME280;48553;50.766;2.900;2023-09-19T08:31:05;100348.88;;;16.96;74.60
60852;BME280;48553;50.766;2.900;2023-09-19T08:34:06;100340.59;;;16.99;74.56
60852;BME280;48553;50.766;2.900;2023-09-19T08:37:06;100338.22;;;17.05;74.48
60852;BME280;48553;50.766;2.900;2023-09-19T08:40:07;100342.19;;;17.07;74.47
60852;BME280;48553;50.766;2.900;2023-09-19T08:43:09;100339.06;;;17.13;74.30
60852;BME280;48553;50.766;2.900;2023-09-19T08:46:11;100345.78;;;17.19;74.35
60852;BME280;48553;50.766;2.900;2023-09-19T08:49:53;100335.53;;;17.30;74.46
60852;BME280;48553;50.766;2.900;2023-09-19T08:53:00;100336.34;;;17.34;73.99
60852;BME280;48553;50.766;2.900;2023-09-19T08:56:01;100352.19;;;17.41;73.82
60852;BME280;48553;50.766;2.900;2023-09-19T08:59:03;100360.94;;;17.46;73.23
60852;BME280;48553;50.766;2.900;2023-09-19T09:02:04;100357.75;;;17.51;73.26
60852;BME280;48553;50.766;2.900;2023-09-19T09:05:09;100354.59;;;17.53;73.13
60852;BME280;48553;50.766;2.900;2023-09-19T09:08:11;100351.81;;;17.53;72.89
60852;BME280;48553;50.766;2.900;2023-09-19T09:11:12;100348.66;;;17.54;72.68
60852;BME280;48553;50.766;2.900;2023-09-19T09:14:13;100353.81;;;17.56;72.53
60852;BME280;48553;50.766;2.900;2023-09-19T09:17:14;100366.88;;;17.63;72.39
60852;BME280;48553;50.766;2.900;2023-09-19T09:20:14;100348.66;;;17.69;72.28
60852;BME280;48553;50.766;2.900;2023-09-19T09:23:14;100348.69;;;17.72;72.27
60852;BME280;48553;50.766;2.900;2023-09-19T09:26:15;100343.56;;;17.78;72.35
60852;BME280;48553;50.766;2.900;2023-09-19T09:29:17;100329.72;;;17.82;72.02
60852;BME280;48553;50.766;2.900;2023-09-19T09:32:37;100339.22;;;17.84;71.79
60852;BME280;48553;50.766;2.900;2023-09-19T09:35:55;100334.06;;;17.93;71.86
60852;BME280;48553;50.766;2.900;2023-09-19T09:39:00;100342.38;;;18.11;71.52
60852;BME280;48553;50.766;2.900;2023-09-19T09:42:32;100328.88;;;18.31;71.35
60852;BME280;48553;50.766;2.900;2023-09-19T09:45:32;100332.41;;;18.53;71.25
60852;BME280;48553;50.766;2.900;2023-09-19T09:48:33;100336.72;;;18.72;70.62
60852;BME280;48553;50.766;2.900;2023-09-19T09:51:39;100323.94;;;19.00;70.50
60852;BME280;48553;50.766;2.900;2023-09-19T09:55:02;100319.78;;;19.33;69.46
60852;BME280;48553;50.766;2.900;2023-09-19T09:58:16;100329.28;;;19.39;68.20
60852;BME280;48553;50.766;2.900;2023-09-19T10:01:18;100330.84;;;19.44;68.09
60852;BME280;48553;50.766;2.900;2023-09-19T10:04:28;100328.78;;;19.55;67.16
60852;BME280;48553;50.766;2.900;2023-09-19T10:07:36;100335.09;;;19.59;67.05
60852;BME280;48553;50.766;2.900;2023-09-19T10:10:39;100332.78;;;19.51;67.13
60852;BME280;48553;50.766;2.900;2023-09-19T10:13:43;100342.75;;;19.45;66.67
60852;BME280;48553;50.766;2.900;2023-09-19T10:16:47;100344.72;;;19.48;66.21
60852;BME280;48553;50.766;2.900;2023-09-19T10:19:55;100343.03;;;19.61;65.89
60852;BME280;48553;50.766;2.900;2023-09-19T10:23:00;100342.22;;;19.71;66.04
60852;BME280;48553;50.766;2.900;2023-09-19T10:26:01;100334.19;;;19.80;65.77
60852;BME280;48553;50.766;2.900;2023-09-19T10:29:02;100321.41;;;19.90;65.19
60852;BME280;48553;50.766;2.900;2023-09-19T10:32:07;100327.34;;;19.92;65.24
60852;BME280;48553;50.766;2.900;2023-09-19T10:35:11;100313.81;;;19.94;65.52
60852;BME280;48553;50.766;2.900;2023-09-19T10:38:15;100316.97;;;19.96;65.42
60852;BME280;48553;50.766;2.900;2023-09-19T10:41:20;100321.25;;;20.05;65.09
60852;BME280;48553;50.766;2.900;2023-09-19T10:44:25;100332.63;;;20.21;64.74
60852;BME280;48553;50.766;2.900;2023-09-19T10:47:26;100322.88;;;20.43;64.68
60852;BME280;48553;50.766;2.900;2023-09-19T10:50:30;100316.03;;;20.52;63.68
60852;BME280;48553;50.766;2.900;2023-09-19T10:53:53;100323.53;;;20.58;63.21
60852;BME280;48553;50.766;2.900;2023-09-19T10:56:55;100335.47;;;20.59;63.21
60852;BME280;48553;50.766;2.900;2023-09-19T11:03:16;100340.47;;;20.33;64.10
60852;BME280;48553;50.766;2.900;2023-09-19T11:06:19;100335.00;;;20.22;63.97
60852;BME280;48553;50.766;2.900;2023-09-19T11:09:19;100326.28;;;20.20;63.43
60852;BME280;48553;50.766;2.900;2023-09-19T11:18:58;100338.03;;;19.97;64.61
60852;BME280;48553;50.766;2.900;2023-09-19T11:22:04;100328.50;;;19.95;64.55
60852;BME280;48553;50.766;2.900;2023-09-19T11:28:41;100315.00;;;19.93;64.31
60852;BME280;48553;50.766;2.900;2023-09-19T11:31:43;100305.53;;;19.87;64.53
60852;BME280;48553;50.766;2.900;2023-09-19T11:34:45;100314.69;;;19.84;64.66
60852;BME280;48553;50.766;2.900;2023-09-19T11:47:26;100299.88;;;19.98;64.67
60852;BME280;48553;50.766;2.900;2023-09-19T11:50:27;100297.84;;;20.02;64.91
60852;BME280;48553;50.766;2.900;2023-09-19T11:53:31;100304.56;;;20.05;63.88
60852;BME280;48553;50.766;2.900;2023-09-19T11:56:39;100301.34;;;20.10;64.04
60852;BME280;48553;50.766;2.900;2023-09-19T11:59:41;100293.66;;;20.24;63.07
60852;BME280;48553;50.766;2.900;2023-09-19T12:02:46;100295.16;;;20.33;63.33
60852;BME280;48553;50.766;2.900;2023-09-19T12:05:47;100309.09;;;20.33;62.58
60852;BME280;48553;50.766;2.900;2023-09-19T12:08:47;100309.47;;;20.35;62.84
60852;BME280;48553;50.766;2.900;2023-09-19T12:11:50;100311.06;;;20.32;63.54
60852;BME280;48553;50.766;2.900;2023-09-19T12:14:53;100315.84;;;20.32;63.42
60852;BME280;48553;50.766;2.900;2023-09-19T12:17:54;100303.13;;;20.31;63.69
60852;BME280;48553;50.766;2.900;2023-09-19T12:20:54;100305.63;;;20.21;63.51
60852;BME280;48553;50.766;2.900;2023-09-19T12:24:11;100294.97;;;20.13;63.51
60852;BME280;48553;50.766;2.900;2023-09-19T12:27:13;100288.16;;;20.17;63.20
60852;BME280;48553;50.766;2.900;2023-09-19T12:30:14;100301.63;;;20.22;63.08
60852;BME280;48553;50.766;2.900;2023-09-19T12:33:18;100288.50;;;20.23;62.87
60852;BME280;48553;50.766;2.900;2023-09-19T12:36:26;100288.94;;;20.18;62.72
60852;BME280;48553;50.766;2.900;2023-09-19T12:39:29;100286.53;;;20.20;62.33
60852;BME280;48553;50.766;2.900;2023-09-19T12:42:30;100287.22;;;20.31;62.67
60852;BME280;48553;50.766;2.900;2023-09-19T12:45:35;100287.78;;;20.53;62.31
60852;BME280;48553;50.766;2.900;2023-09-19T12:48:37;100292.41;;;20.67;61.63
60852;BME280;48553;50.766;2.900;2023-09-19T12:51:45;100294.91;;;20.54;62.07
60852;BME280;48553;50.766;2.900;2023-09-19T12:54:46;100298.53;;;20.51;62.10
60852;BME280;48553;50.766;2.900;2023-09-19T13:01:14;100304.63;;;20.39;62.50
60852;BME280;48553;50.766;2.900;2023-09-19T13:04:15;100311.50;;;20.27;62.57
60852;BME280;48553;50.766;2.900;2023-09-19T13:07:44;100297.28;;;20.21;62.63
60852;BME280;48553;50.766;2.900;2023-09-19T13:14:26;100299.69;;;20.16;62.95
60852;BME280;48553;50.766;2.900;2023-09-19T13:17:44;100287.44;;;20.10;63.04
60852;BME280;48553;50.766;2.900;2023-09-19T13:21:05;100299.78;;;20.09;62.92
60852;BME280;48553;50.766;2.900;2023-09-19T13:24:22;100294.69;;;20.00;63.30
60852;BME280;48553;50.766;2.900;2023-09-19T13:27:27;100301.09;;;19.93;63.42
60852;BME280;48553;50.766;2.900;2023-09-19T13:30:29;100301.56;;;19.85;63.79
60852;BME280;48553;50.766;2.900;2023-09-19T13:33:33;100293.34;;;19.74;64.28
60852;BME280;48553;50.766;2.900;2023-09-19T13:36:33;100301.28;;;19.68;64.48
60852;BME280;48553;50.766;2.900;2023-09-19T13:39:34;100305.69;;;19.62;64.72
60852;BME280;48553;50.766;2.900;2023-09-19T13:42:34;100303.34;;;19.57;65.36
60852;BME280;48553;50.766;2.900;2023-09-19T13:45:36;100305.34;;;19.56;65.44
60852;BME280;48553;50.766;2.900;2023-09-19T13:48:37;100314.47;;;19.57;65.62
60852;BME280;48553;50.766;2.900;2023-09-19T13:51:38;100298.09;;;19.73;65.47
60852;BME280;48553;50.766;2.900;2023-09-19T13:54:39;100292.44;;;19.84;65.33
60852;BME280;48553;50.766;2.900;2023-09-19T13:57:39;100303.13;;;19.89;64.82
60852;BME280;48553;50.766;2.900;2023-09-19T14:00:40;100296.38;;;19.90;64.85
60852;BME280;48553;50.766;2.900;2023-09-19T14:03:41;100306.28;;;19.91;64.74
60852;BME280;48553;50.766;2.900;2023-09-19T14:06:46;100286.47;;;19.86;64.51
60852;BME280;48553;50.766;2.900;2023-09-19T14:09:47;100291.66;;;19.84;64.87
60852;BME280;48553;50.766;2.900;2023-09-19T14:12:47;100288.88;;;19.80;64.79
60852;BME280;48553;50.766;2.900;2023-09-19T14:15:48;100290.94;;;19.76;64.91
60852;BME280;48553;50.766;2.900;2023-09-19T14:18:48;100286.97;;;19.73;64.82
60852;BME280;48553;50.766;2.900;2023-09-19T14:21:50;100289.00;;;19.66;65.15
60852;BME280;48553;50.766;2.900;2023-09-19T14:24:51;100287.84;;;19.59;65.24
60852;BME280;48553;50.766;2.900;2023-09-19T14:27:52;100297.00;;;19.56;64.81
60852;BME280;48553;50.766;2.900;2023-09-19T14:30:53;100302.56;;;19.53;65.37
60852;BME280;48553;50.766;2.900;2023-09-19T14:33:54;100305.41;;;19.46;65.64
60852;BME280;48553;50.766;2.900;2023-09-19T14:36:56;100305.84;;;19.44;66.21
60852;BME280;48553;50.766;2.900;2023-09-19T14:39:57;100322.53;;;19.40;67.05
60852;BME280;48553;50.766;2.900;2023-09-19T14:42:57;100313.84;;;19.35;67.35
60852;BME280;48553;50.766;2.900;2023-09-19T14:46:07;100310.25;;;19.34;67.70
60852;BME280;48553;50.766;2.900;2023-09-19T14:49:08;100302.75;;;19.31;67.90
60852;BME280;48553;50.766;2.900;2023-09-19T14:52:11;100301.56;;;19.29;67.98
60852;BME280;48553;50.766;2.900;2023-09-19T14:55:15;100308.72;;;19.23;67.82
60852;BME280;48553;50.766;2.900;2023-09-19T14:58:16;100305.19;;;19.22;67.88
60852;BME280;48553;50.766;2.900;2023-09-19T15:01:16;100308.34;;;19.20;67.89
60852;BME280;48553;50.766;2.900;2023-09-19T15:04:17;100307.16;;;19.22;67.96
60852;BME280;48553;50.766;2.900;2023-09-19T15:07:18;100301.22;;;19.19;67.80
60852;BME280;48553;50.766;2.900;2023-09-19T15:10:18;100308.34;;;19.20;67.92
60852;BME280;48553;50.766;2.900;2023-09-19T15:13:19;100299.63;;;19.22;67.83
60852;BME280;48553;50.766;2.900;2023-09-19T15:16:20;100290.91;;;19.20;67.85
60852;BME280;48553;50.766;2.900;2023-09-19T15:19:21;100292.88;;;19.19;68.00
60852;BME280;48553;50.766;2.900;2023-09-19T15:22:22;100294.47;;;19.20;68.05
60852;BME280;48553;50.766;2.900;2023-09-19T15:25:23;100292.91;;;19.16;68.34
60852;BME280;48553;50.766;2.900;2023-09-19T15:28:24;100288.94;;;19.13;68.53
60852;BME280;48553;50.766;2.900;2023-09-19T15:31:24;100289.34;;;19.12;69.37
60852;BME280;48553;50.766;2.900;2023-09-19T15:34:24;100289.38;;;19.05;70.51
60852;BME280;48553;50.766;2.900;2023-09-19T15:37:25;100296.16;;;19.00;70.70
60852;BME280;48553;50.766;2.900;2023-09-19T15:40:26;100301.34;;;18.94;71.47
60852;BME280;48553;50.766;2.900;2023-09-19T15:43:27;100292.63;;;18.92;71.91
60852;BME280;48553;50.766;2.900;2023-09-19T15:46:28;100289.47;;;18.90;72.18
60852;BME280;48553;50.766;2.900;2023-09-19T15:49:29;100302.56;;;18.86;72.49
60852;BME280;48553;50.766;2.900;2023-09-19T15:52:30;100293.84;;;18.84;72.62
60852;BME280;48553;50.766;2.900;2023-09-19T15:55:30;100299.81;;;18.83;72.59
60852;BME280;48553;50.766;2.900;2023-09-19T15:58:31;100298.63;;;18.80;72.72
60852;BME280;48553;50.766;2.900;2023-09-19T16:01:32;100306.56;;;18.78;72.71
60852;BME280;48553;50.766;2.900;2023-09-19T16:04:33;100301.00;;;18.74;72.76
60852;BME280;48553;50.766;2.900;2023-09-19T16:07:34;100289.91;;;18.74;72.62
60852;BME280;48553;50.766;2.900;2023-09-19T16:10:36;100301.41;;;18.73;72.85
60852;BME280;48553;50.766;2.900;2023-09-19T16:13:38;100304.97;;;18.73;72.81
60852;BME280;48553;50.766;2.900;2023-09-19T16:16:39;100293.09;;;18.69;72.98
60852;BME280;48553;50.766;2.900;2023-09-19T16:19:39;100285.16;;;18.68;73.12
60852;BME280;48553;50.766;2.900;2023-09-19T16:22:40;100289.56;;;18.65;73.48
60852;BME280;48553;50.766;2.900;2023-09-19T16:25:41;100292.72;;;18.64;73.19
60852;BME280;48553;50.766;2.900;2023-09-19T16:28:44;100278.06;;;18.63;73.42
60852;BME280;48553;50.766;2.900;2023-09-19T16:31:44;100281.25;;;18.58;73.62
60852;BME280;48553;50.766;2.900;2023-09-19T16:34:45;100270.13;;;18.62;73.60
60852;BME280;48553;50.766;2.900;2023-09-19T16:37:45;100279.66;;;18.61;73.64
60852;BME280;48553;50.766;2.900;2023-09-19T16:40:54;100289.97;;;18.56;73.68
60852;BME280;48553;50.766;2.900;2023-09-19T16:43:56;100284.03;;;18.54;73.88
60852;BME280;48553;50.766;2.900;2023-09-19T16:46:58;100288.78;;;18.54;73.92